Time;durP1;ratioP1;P1;durP2;ratioP2;P2;SDS_P1;SDS_P2;PMS_P1;PMS_P2;Temp;Humidity;BMP_temperature;BMP_pressure;BME280_temperature;BME280_humidity;BME280_pressure;Samples;Min_cycle;Max_cycle;Signal;HPM_P1;HPM_P2
2023/07/15 00:01:34;;;;;;;3.08;2.47;;;;;;;19.84;71.56;100342.50;5080128;28;20231;-83
2023/07/15 00:04:00;;;;;;;3.50;2.50;;;;;;;19.82;71.49;100339.13;5104738;28;20095;-83
2023/07/15 00:06:25;;;;;;;3.00;2.50;;;;;;;19.82;71.50;100341.78;5086504;28;20032;-83
2023/07/15 00:08:52;;;;;;;4.25;2.38;;;;;;;19.81;71.86;100358.69;5087918;28;20101;-83
2023/07/15 00:11:46;;;;;;;2.10;2.00;;;;;;;19.80;71.75;100357.88;5100290;28;20359;-83
2023/07/15 00:14:18;;;;;;;3.05;2.63;;;;;;;19.81;71.93;100369.31;5067280;28;20024;-83
2023/07/15 00:16:43;;;;;;;4.28;2.47;;;;;;;19.80;71.81;100370.31;5066934;28;20078;-83
2023/07/15 00:19:09;;;;;;;2.85;2.38;;;;;;;19.79;72.02;100361.47;5064954;28;20024;-83
2023/07/15 00:21:35;;;;;;;2.25;2.10;;;;;;;19.80;71.32;100359.69;5079248;28;20052;-83
2023/07/15 00:24:01;;;;;;;3.05;2.28;;;;;;;19.83;71.33;100354.09;5078660;28;20040;-83
2023/07/15 00:26:29;;;;;;;2.50;2.30;;;;;;;19.84;71.31;100345.16;5073638;28;20025;-83
2023/07/15 00:28:55;;;;;;;2.42;2.08;;;;;;;19.85;71.20;100354.81;5067334;28;20028;-83
2023/07/15 00:31:23;;;;;;;2.38;1.80;;;;;;;19.88;71.09;100362.50;5076655;28;20059;-83
2023/07/15 00:33:49;;;;;;;7.18;2.03;;;;;;;19.88;70.94;100359.84;5077811;28;20084;-83
2023/07/15 00:36:15;;;;;;;2.25;1.80;;;;;;;19.88;70.42;100371.34;5069290;28;20028;-83
2023/07/15 00:38:42;;;;;;;2.22;1.98;;;;;;;19.90;70.34;100373.84;5078554;28;20402;-83
2023/07/15 00:41:22;;;;;;;2.65;1.80;;;;;;;19.88;70.20;100384.63;5063713;28;20036;-83
2023/07/15 00:43:58;;;;;;;2.75;1.77;;;;;;;19.89;70.45;100382.78;5077831;28;20267;-83
2023/07/15 00:46:36;;;;;;;2.00;1.80;;;;;;;19.89;70.28;100386.28;5076970;28;20028;-83
2023/07/15 00:49:32;;;;;;;1.85;1.75;;;;;;;19.90;70.25;100389.78;5079419;28;20023;-83
2023/07/15 00:52:05;;;;;;;1.98;1.88;;;;;;;19.89;70.27;100407.53;5057334;28;20312;-84
2023/07/15 00:54:35;;;;;;;2.03;1.92;;;;;;;19.90;69.96;100416.34;5072387;28;20047;-84
2023/07/15 00:57:01;;;;;;;1.83;1.73;;;;;;;19.90;70.33;100416.34;5075900;28;20239;-84
2023/07/15 00:59:27;;;;;;;1.92;1.73;;;;;;;19.90;70.37;100411.03;5076824;28;20028;-83
2023/07/15 01:01:53;;;;;;;2.28;2.17;;;;;;;19.90;70.50;100401.25;5091544;28;20101;-84
2023/07/15 01:04:20;;;;;;;2.08;1.88;;;;;;;19.89;70.39;100398.75;5082374;28;20025;-82
2023/07/15 01:06:46;;;;;;;5.47;2.05;;;;;;;19.89;70.46;100401.41;5077340;28;20044;-83
2023/07/15 01:09:12;;;;;;;2.05;1.85;;;;;;;19.87;70.48;100401.53;5077158;28;20285;-82
2023/07/15 01:11:39;;;;;;;2.20;1.98;;;;;;;19.86;70.72;100396.34;5078201;28;20044;-83
2023/07/15 01:14:05;;;;;;;2.95;1.67;;;;;;;19.86;70.66;100404.31;5070719;28;20301;-82
2023/07/15 01:16:32;;;;;;;3.45;2.45;;;;;;;19.84;71.18;100401.78;5094553;28;20036;-82
2023/07/15 01:18:57;;;;;;;2.70;2.50;;;;;;;19.82;71.73;100402.91;5096610;28;20035;-82
2023/07/15 01:21:25;;;;;;;2.63;2.30;;;;;;;19.79;72.17;100408.47;5086619;28;20032;-83
2023/07/15 01:23:51;;;;;;;3.33;2.72;;;;;;;19.77;72.56;100405.09;5076876;28;20347;-83
2023/07/15 01:26:16;;;;;;;3.00;2.30;;;;;;;19.74;73.03;100403.56;5075938;28;20040;-83
2023/07/15 01:28:42;;;;;;;5.88;2.40;;;;;;;19.69;73.36;100395.94;5076545;28;20042;-83
2023/07/15 01:31:08;;;;;;;2.67;2.45;;;;;;;19.65;74.26;100391.88;5089784;28;20063;-83
2023/07/15 01:33:33;;;;;;;3.55;2.20;;;;;;;19.62;74.39;100389.47;5093708;28;20035;-83
2023/07/15 01:35:59;;;;;;;3.28;2.97;;;;;;;19.59;74.84;100389.75;5087287;28;20028;-83
2023/07/15 01:38:24;;;;;;;4.00;2.70;;;;;;;19.56;75.07;100401.47;5095535;28;20020;-83
2023/07/15 01:40:49;;;;;;;5.15;2.65;;;;;;;19.55;75.34;100401.59;5061583;28;20028;-82
2023/07/15 01:43:15;;;;;;;3.67;2.40;;;;;;;19.54;75.64;100399.94;5076576;28;20325;-82
2023/07/15 01:45:40;;;;;;;6.28;2.65;;;;;;;19.54;75.64;100394.63;5058326;28;20083;-83
2023/07/15 01:48:09;;;;;;;2.88;2.13;;;;;;;19.54;75.53;100398.13;5076868;28;20086;-83
2023/07/15 01:50:35;;;;;;;;;;;;;;;19.55;76.06;100398.94;5058255;28;20355;-83
2023/07/15 01:53:01;;;;;;;2.30;2.10;;;;;;;19.54;75.92;100402.59;5076605;28;19991;-83
2023/07/15 01:55:26;;;;;;;1.77;1.67;;;;;;;19.54;75.66;100394.63;5079009;28;20054;-83
2023/07/15 01:57:53;;;;;;;3.47;2.05;;;;;;;19.58;76.02;100400.50;5096241;28;20040;-82
2023/07/15 02:00:20;;;;;;;1.80;1.70;;;;;;;19.58;76.06;100400.50;5076604;28;20011;-82
2023/07/15 02:02:46;;;;;;;1.88;1.42;;;;;;;19.59;75.82;100403.00;5080748;28;20032;-82
2023/07/15 02:05:11;;;;;;;2.08;1.88;;;;;;;19.61;76.02;100395.78;5091147;28;20046;-82
2023/07/15 02:07:37;;;;;;;1.98;1.45;;;;;;;19.64;76.28;100397.31;5074002;28;20047;-84
2023/07/15 02:10:03;;;;;;;2.17;1.45;;;;;;;19.68;77.56;100398.72;5058794;28;20099;-83
2023/07/15 02:12:28;;;;;;;2.30;1.50;;;;;;;19.69;77.08;100387.97;5076689;28;20040;-82
2023/07/15 02:14:54;;;;;;;1.70;1.60;;;;;;;19.71;76.77;100394.00;5091658;28;20327;-82
2023/07/15 02:17:22;;;;;;;1.27;1.17;;;;;;;19.74;77.02;100390.28;5091147;28;20024;-83
2023/07/15 02:19:48;;;;;;;2.50;1.20;;;;;;;19.77;77.16;100389.16;5095774;28;20235;-82
2023/07/15 02:22:14;;;;;;;7.53;1.23;;;;;;;19.79;77.27;100392.53;5095693;28;20205;-83
2023/07/15 02:24:39;;;;;;;1.30;1.20;;;;;;;19.79;77.77;100393.38;5078196;28;20032;-82
2023/07/15 02:27:04;;;;;;;1.48;1.20;;;;;;;19.82;77.14;100392.28;5076364;28;20048;-84
2023/07/15 02:29:30;;;;;;;1.02;1.02;;;;;;;19.84;77.20;100390.31;5057226;28;20239;-86
2023/07/15 02:31:55;;;;;;;1.08;1.00;;;;;;;19.84;76.93;100385.00;5075433;28;20048;-85
2023/07/15 02:34:21;;;;;;;3.80;1.15;;;;;;;19.87;78.35;100392.72;5075099;28;20091;-85
2023/07/15 02:36:47;;;;;;;2.50;1.30;;;;;;;19.88;77.84;100389.06;5073698;28;20371;-85
2023/07/15 02:39:13;;;;;;;1.70;1.25;;;;;;;19.89;78.23;100398.75;5075462;28;20027;-84
2023/07/15 02:41:39;;;;;;;2.10;1.40;;;;;;;19.89;77.97;100394.25;5074967;28;20290;-84
2023/07/15 02:44:05;;;;;;;3.08;1.20;;;;;;;19.89;77.72;100388.09;5075386;28;20040;-84
2023/07/15 02:46:30;;;;;;;2.20;1.45;;;;;;;19.89;78.42;100382.78;5075188;28;20040;-84
2023/07/15 02:48:56;;;;;;;1.63;1.30;;;;;;;19.87;79.07;100390.91;5075238;28;20028;-84
2023/07/15 02:51:23;;;;;;;1.60;1.42;;;;;;;19.87;78.50;100385.59;5074604;28;20105;-84
2023/07/15 02:53:48;;;;;;;7.18;1.65;;;;;;;19.87;78.04;100379.44;5074868;28;20036;-84
2023/07/15 02:56:14;;;;;;;1.50;1.40;;;;;;;19.87;78.71;100384.75;5075175;28;20044;-85
2023/07/15 02:58:40;;;;;;;3.28;1.60;;;;;;;19.86;78.46;100383.88;5074387;28;20099;-84
2023/07/15 03:01:07;;;;;;;1.85;1.73;;;;;;;19.86;79.80;100391.84;5074895;28;20102;-85
2023/07/15 03:03:33;;;;;;;4.07;1.80;;;;;;;19.83;80.22;100389.50;5076070;28;20270;-85
2023/07/15 03:05:58;;;;;;;2.72;1.65;;;;;;;19.84;80.14;100398.28;5094221;28;20043;-85
2023/07/15 03:08:24;;;;;;;1.90;1.70;;;;;;;19.81;80.48;100393.22;5075839;28;20107;-84
2023/07/15 03:10:49;;;;;;;3.60;1.65;;;;;;;19.79;80.77;100388.03;5077584;28;20082;-85
2023/07/15 03:13:15;;;;;;;1.65;1.55;;;;;;;19.80;80.70;100388.91;5089476;28;20399;-84
2023/07/15 03:15:42;;;;;;;1.92;1.67;;;;;;;19.79;80.31;100381.91;5093953;28;20030;-84
2023/07/15 03:18:07;;;;;;;2.25;1.58;;;;;;;19.78;80.33;100378.41;5077310;28;20040;-84
2023/07/15 03:20:33;;;;;;;3.20;1.58;;;;;;;19.79;80.36;100395.19;5056163;28;20334;-85
2023/07/15 03:22:58;;;;;;;2.97;1.73;;;;;;;19.75;81.19;100398.13;5075128;28;20458;-85
2023/07/15 03:25:24;;;;;;;1.63;1.40;;;;;;;19.74;81.45;100399.09;5056248;28;20286;-85
2023/07/15 03:27:50;;;;;;;2.60;1.60;;;;;;;19.73;81.51;100392.06;5074834;28;20047;-85
2023/07/15 03:30:16;;;;;;;5.65;1.90;;;;;;;19.73;81.46;100393.91;5075071;28;20060;-85
2023/07/15 03:32:43;;;;;;;2.70;1.70;;;;;;;19.70;81.75;100392.34;5074353;28;20044;-84
2023/07/15 03:35:09;;;;;;;2.83;2.10;;;;;;;19.69;81.53;100390.63;5088049;28;20066;-84
2023/07/15 03:37:36;;;;;;;3.10;1.58;;;;;;;19.70;81.62;100388.81;5092081;28;20036;-85
2023/07/15 03:40:04;;;;;;;2.30;1.80;;;;;;;19.68;81.90;100394.28;5085049;28;20016;-85
2023/07/15 03:42:30;;;;;;;2.00;1.90;;;;;;;19.69;81.63;100393.28;5076743;28;20148;-84
2023/07/15 03:44:55;;;;;;;3.67;2.00;;;;;;;19.69;81.15;100393.28;5077456;28;20040;-84
2023/07/15 03:47:20;;;;;;;1.83;1.65;;;;;;;19.69;81.73;100395.94;5058292;28;20039;-85
2023/07/15 03:49:46;;;;;;;3.30;1.50;;;;;;;19.69;81.41;100393.28;5078059;28;20048;-84
2023/07/15 03:52:12;;;;;;;2.55;1.52;;;;;;;19.69;81.68;100395.13;5078220;28;20035;-84
2023/07/15 03:54:37;;;;;;;1.60;1.50;;;;;;;19.69;81.55;100397.78;5077157;28;20379;-85
2023/07/15 03:57:03;;;;;;;2.25;1.58;;;;;;;19.70;81.79;100394.13;5077983;28;20036;-85
2023/07/15 03:59:28;;;;;;;1.42;1.33;;;;;;;19.70;81.55;100394.13;5059453;28;20016;-84
2023/07/15 04:01:54;;;;;;;2.13;1.60;;;;;;;19.71;81.32;100396.66;5060036;28;20032;-84
2023/07/15 04:04:19;;;;;;;1.55;1.40;;;;;;;19.72;81.47;100405.50;5085198;28;20392;-84
2023/07/15 04:06:44;;;;;;;5.28;1.60;;;;;;;19.72;81.65;100402.84;5097374;28;20283;-85
2023/07/15 04:09:12;;;;;;;1.70;1.60;;;;;;;19.72;81.04;100406.31;5094510;28;20073;-85
2023/07/15 04:11:39;;;;;;;1.40;1.30;;;;;;;19.74;81.68;100400.91;5078455;28;20044;-84
2023/07/15 04:14:05;;;;;;;2.22;1.52;;;;;;;19.74;81.60;100404.41;5097204;28;20062;-84
2023/07/15 04:16:30;;;;;;;1.67;1.58;;;;;;;19.75;81.38;100410.53;5078056;28;20358;-84
2023/07/15 04:18:56;;;;;;;1.50;1.40;;;;;;;19.77;81.47;100418.41;5096982;28;20020;-85
2023/07/15 04:21:21;;;;;;;4.47;1.63;;;;;;;19.78;82.19;100428.06;5078157;28;20031;-84
2023/07/15 04:23:47;;;;;;;1.50;1.40;;;;;;;19.79;82.57;100438.53;5097374;28;20103;-85
2023/07/15 04:26:14;;;;;;;3.70;1.52;;;;;;;19.78;82.25;100428.88;5097348;28;20251;-85
2023/07/15 04:28:39;;;;;;;4.18;1.52;;;;;;;19.79;82.64;100430.56;5096275;28;20515;-85
2023/07/15 04:31:05;;;;;;;1.95;1.52;;;;;;;19.80;82.76;100437.56;5096625;28;20042;-86
2023/07/15 04:33:31;;;;;;;1.70;1.50;;;;;;;19.80;82.08;100442.06;5076499;28;20032;-84
2023/07/15 04:35:56;;;;;;;3.35;1.42;;;;;;;19.81;82.63;100439.25;5077186;28;20024;-86
2023/07/15 04:38:34;;;;;;;1.95;1.17;;;;;;;19.81;82.04;100441.06;5076727;28;20028;-86
2023/07/15 04:40:59;;;;;;;2.70;1.40;;;;;;;19.78;81.48;100444.00;5059067;28;20078;-85
2023/07/15 04:43:24;;;;;;;1.75;0.90;;;;;;;19.78;81.02;100444.00;5076643;28;20036;-83
2023/07/15 04:45:50;;;;;;;0.93;0.80;;;;;;;19.75;80.12;100448.59;5077066;28;20162;-84
2023/07/15 04:48:15;;;;;;;3.08;1.10;;;;;;;19.73;79.66;100437.25;5077077;28;20457;-85
2023/07/15 04:50:41;;;;;;;1.40;0.90;;;;;;;19.67;77.87;100443.06;5076176;28;20032;-85
2023/07/15 04:53:06;;;;;;;4.30;1.15;;;;;;;19.64;77.75;100437.16;5076899;28;20243;-86
2023/07/15 04:55:32;;;;;;;2.10;0.90;;;;;;;19.63;77.99;100438.13;5075940;28;20031;-85
2023/07/15 04:57:57;;;;;;;1.20;0.93;;;;;;;19.62;78.23;100442.59;5077050;28;20036;-85
2023/07/15 05:00:22;;;;;;;1.92;1.17;;;;;;;19.63;78.20;100438.13;5058131;28;20095;-85
2023/07/15 05:02:49;;;;;;;1.23;1.00;;;;;;;19.60;78.53;100436.59;5077104;28;20032;-84
2023/07/15 05:05:15;;;;;;;1.23;0.90;;;;;;;19.60;78.47;100436.59;5088054;28;20481;-84
2023/07/15 05:07:40;;;;;;;1.25;0.88;;;;;;;19.59;78.62;100440.19;5095632;28;20103;-84
2023/07/15 05:10:06;;;;;;;2.35;1.27;;;;;;;19.59;78.92;100442.84;5085507;28;20047;-85
2023/07/15 05:12:31;;;;;;;3.70;1.50;;;;;;;19.58;79.16;100445.66;5084646;28;20040;-84
2023/07/15 05:14:56;;;;;;;3.65;1.20;;;;;;;19.59;79.36;100452.66;5096161;28;20362;-85
2023/07/15 05:17:22;;;;;;;2.42;1.33;;;;;;;19.57;79.82;100447.47;5095435;28;20041;-84
2023/07/15 05:19:47;;;;;;;2.53;1.20;;;;;;;19.57;79.91;100452.78;5096298;28;20020;-84
2023/07/15 05:22:13;;;;;;;2.42;1.45;;;;;;;19.58;80.09;100448.31;5095741;28;20282;-84
2023/07/15 05:24:38;;;;;;;2.13;1.30;;;;;;;19.57;80.19;100442.16;5095591;28;20365;-84
2023/07/15 05:27:05;;;;;;;1.42;1.00;;;;;;;19.58;80.55;100450.97;5062188;28;20021;-85
2023/07/15 05:29:31;;;;;;;3.50;1.60;;;;;;;19.58;80.45;100448.31;5076052;28;20371;-84
2023/07/15 05:31:56;;;;;;;3.63;1.48;;;;;;;19.56;80.02;100438.66;5076451;28;20032;-85
2023/07/15 05:34:21;;;;;;;3.30;1.10;;;;;;;19.55;78.27;100446.75;5084135;28;20404;-85
2023/07/15 05:36:47;;;;;;;3.65;1.20;;;;;;;19.54;77.85;100443.25;5077373;28;20036;-85
2023/07/15 05:39:13;;;;;;;3.92;1.70;;;;;;;19.54;77.42;100445.91;5073824;28;20047;-85
2023/07/15 05:41:39;;;;;;;2.83;1.40;;;;;;;19.54;77.30;100447.75;5075652;28;20028;-84
2023/07/15 05:44:04;;;;;;;3.50;1.42;;;;;;;19.52;77.32;100445.22;5058016;28;20093;-85
2023/07/15 05:46:30;;;;;;;3.08;1.60;;;;;;;19.53;77.43;100448.69;5075379;28;20044;-84
2023/07/15 05:48:56;;;;;;;2.25;1.20;;;;;;;19.53;77.99;100449.53;5075859;28;20036;-84
2023/07/15 05:51:22;;;;;;;3.70;1.30;;;;;;;19.53;77.92;100446.03;5057138;28;20028;-84
2023/07/15 05:53:47;;;;;;;1.58;1.20;;;;;;;19.54;78.17;100455.72;5058002;28;20292;-84
2023/07/15 05:56:12;;;;;;;4.25;1.60;;;;;;;19.54;78.46;100461.03;5076127;28;20032;-85
2023/07/15 05:58:38;;;;;;;1.65;1.10;;;;;;;19.54;78.54;100459.19;5075449;28;20394;-85
2023/07/15 06:01:04;;;;;;;2.28;1.30;;;;;;;19.54;79.60;100455.72;5075648;28;20032;-85
2023/07/15 06:03:29;;;;;;;5.13;1.42;;;;;;;19.54;80.00;100453.06;5076504;28;20036;-84
2023/07/15 06:06:01;;;;;;;1.25;1.10;;;;;;;19.56;80.40;100461.72;5095569;28;20024;-85
2023/07/15 06:08:26;;;;;;;3.83;1.67;;;;;;;19.56;80.94;100462.56;5094474;28;20077;-85
2023/07/15 06:10:52;;;;;;;5.07;1.27;;;;;;;19.58;81.31;100461.59;5078586;28;20258;-84
2023/07/15 06:13:17;;;;;;;2.33;1.20;;;;;;;19.59;81.16;100453.47;5089739;28;20079;-85
2023/07/15 06:15:47;;;;;;;2.35;1.40;;;;;;;19.62;81.28;100449.75;5095185;28;20055;-84
2023/07/15 06:18:12;;;;;;;1.70;1.10;;;;;;;19.64;81.53;100445.97;5095052;28;20040;-86
2023/07/15 06:20:40;;;;;;;3.25;1.38;;;;;;;19.67;81.52;100445.72;5070306;28;20361;-85
2023/07/15 06:23:05;;;;;;;2.08;1.23;;;;;;;19.71;81.28;100444.47;5070121;28;20331;-85
2023/07/15 06:25:31;;;;;;;2.78;1.20;;;;;;;19.73;81.00;100463.81;5074358;28;20048;-85
2023/07/15 06:27:56;;;;;;;2.95;1.45;;;;;;;19.76;80.63;100462.72;5078073;28;20063;-84
2023/07/15 06:30:22;;;;;;;3.00;1.17;;;;;;;19.79;80.80;100464.25;5074530;28;20058;-85
2023/07/15 06:32:49;;;;;;;1.27;1.02;;;;;;;19.81;80.31;100464.97;5075006;28;20067;-84
2023/07/15 06:35:15;;;;;;;1.70;1.20;;;;;;;19.80;79.44;100464.13;5080090;28;20260;-85
2023/07/15 06:37:40;;;;;;;1.98;1.30;;;;;;;19.82;79.63;100462.19;5074436;28;20108;-84
2023/07/15 06:40:07;;;;;;;1.85;1.23;;;;;;;19.83;78.18;100468.34;5074785;28;20032;-84
2023/07/15 06:42:32;;;;;;;3.60;1.85;;;;;;;19.84;78.07;100462.91;5074243;28;20157;-85
2023/07/15 06:44:58;;;;;;;1.40;1.00;;;;;;;19.86;77.91;100468.91;5074912;28;20111;-85
2023/07/15 06:47:24;;;;;;;3.15;1.30;;;;;;;19.87;77.45;100467.97;5073963;28;20040;-85
2023/07/15 06:49:50;;;;;;;2.15;1.30;;;;;;;19.89;77.45;100467.81;5056789;28;20347;-84
2023/07/15 06:52:15;;;;;;;2.00;0.90;;;;;;;19.88;77.56;100461.69;5074984;28;20020;-85
2023/07/15 06:54:40;;;;;;;0.85;0.85;;;;;;;19.88;77.65;100464.34;5073607;28;20039;-84
2023/07/15 06:57:06;;;;;;;2.33;1.00;;;;;;;19.90;77.38;100466.84;5074497;28;20029;-84
2023/07/15 06:59:31;;;;;;;1.80;0.90;;;;;;;19.91;77.57;100471.19;5074264;28;20024;-84
2023/07/15 07:01:57;;;;;;;1.15;0.82;;;;;;;19.92;76.52;100472.88;5074650;28;20290;-84
2023/07/15 07:04:22;;;;;;;3.75;0.80;;;;;;;19.93;76.95;100475.38;5074319;28;20028;-84
2023/07/15 07:06:48;;;;;;;1.70;1.00;;;;;;;19.97;77.05;100470.66;5074515;28;20060;-85
2023/07/15 07:09:13;;;;;;;2.95;0.93;;;;;;;19.99;76.67;100474.00;5077160;28;20415;-85
2023/07/15 07:11:38;;;;;;;1.58;0.93;;;;;;;20.02;76.50;100472.94;5075558;28;20115;-85
2023/07/15 07:14:04;;;;;;;1.63;0.95;;;;;;;20.06;76.68;100463.72;5077941;28;20119;-85
2023/07/15 07:16:29;;;;;;;1.33;0.85;;;;;;;20.08;76.04;100461.75;5078196;28;20038;-85
2023/07/15 07:18:55;;;;;;;0.90;0.80;;;;;;;20.11;76.06;100467.66;5079178;28;20043;-84
2023/07/15 07:21:20;;;;;;;1.40;1.00;;;;;;;20.13;75.23;100464.84;5078481;28;20211;-84
2023/07/15 07:23:46;;;;;;;2.30;0.90;;;;;;;20.14;74.83;100471.88;5078776;28;20044;-85
2023/07/15 07:26:11;;;;;;;0.88;0.80;;;;;;;20.16;75.26;100474.41;5060233;28;20051;-85
2023/07/15 07:28:40;;;;;;;1.67;1.00;;;;;;;20.17;75.22;100474.25;5078535;28;20036;-85
2023/07/15 07:31:05;;;;;;;;;;;;;;;20.19;75.22;100482.09;5078943;28;20070;-85
2023/07/15 07:33:30;;;;;;;3.83;1.20;;;;;;;20.20;75.01;100470.50;5090222;28;20179;-85
2023/07/15 07:35:56;;;;;;;4.03;1.25;;;;;;;20.21;73.90;100469.50;5060082;28;20028;-86
2023/07/15 07:38:21;;;;;;;1.63;1.13;;;;;;;20.21;73.57;100472.16;5077956;28;20028;-84
2023/07/15 07:40:47;;;;;;;1.20;1.10;;;;;;;20.21;73.14;100475.69;5078072;28;20036;-84
2023/07/15 07:43:12;;;;;;;1.45;0.80;;;;;;;20.22;73.88;100479.16;5078356;28;20166;-85
2023/07/15 07:45:37;;;;;;;1.33;1.10;;;;;;;20.23;73.79;100480.84;5077821;28;20091;-85
2023/07/15 07:48:03;;;;;;;1.60;1.05;;;;;;;20.24;73.72;100482.53;5078362;28;20040;-85
2023/07/15 07:50:29;;;;;;;2.65;1.02;;;;;;;20.25;73.33;100484.22;5078037;28;20316;-85
2023/07/15 07:52:54;;;;;;;2.05;1.00;;;;;;;20.24;73.14;100478.06;5053701;28;20082;-85
2023/07/15 07:55:19;;;;;;;1.35;1.20;;;;;;;20.27;73.84;100484.94;5074704;28;20047;-85
2023/07/15 07:57:44;;;;;;;2.25;0.90;;;;;;;20.30;73.61;100488.16;5075508;28;20024;-85
2023/07/15 08:00:10;;;;;;;2.33;1.02;;;;;;;20.32;73.67;100493.34;5075237;28;20036;-85
2023/07/15 08:02:36;;;;;;;2.28;1.10;;;;;;;20.36;73.86;100493.94;5076434;28;20097;-85
2023/07/15 08:05:02;;;;;;;1.10;1.00;;;;;;;20.40;73.83;100493.50;5074217;28;20032;-85
2023/07/15 08:07:27;;;;;;;1.10;1.00;;;;;;;20.42;73.88;100494.22;5062415;28;20028;-85
2023/07/15 08:09:53;;;;;;;1.20;1.10;;;;;;;20.45;73.88;100493.97;5075039;28;20324;-84
2023/07/15 08:12:20;;;;;;;1.05;1.00;;;;;;;20.48;73.20;100490.19;5078992;28;20351;-85
2023/07/15 08:14:45;;;;;;;1.02;0.90;;;;;;;20.52;73.63;100496.94;5079969;28;20031;-85
2023/07/15 08:17:11;;;;;;;2.83;1.30;;;;;;;20.56;73.16;100501.00;5080134;28;20322;-84
2023/07/15 08:19:36;;;;;;;1.08;0.90;;;;;;;20.59;72.51;100507.84;5076705;28;20785;-85
2023/07/15 08:22:01;;;;;;;2.78;1.25;;;;;;;20.61;71.99;100514.78;5061819;28;20027;-84
2023/07/15 08:24:27;;;;;;;1.77;1.20;;;;;;;20.61;70.51;100512.09;5077694;28;20025;-85
2023/07/15 08:26:52;;;;;;;2.20;1.25;;;;;;;20.60;70.12;100510.38;5060824;28;20099;-85
2023/07/15 08:29:18;;;;;;;1.05;0.95;;;;;;;20.60;70.44;100506.88;5074491;28;20044;-84
2023/07/15 08:31:43;;;;;;;2.72;1.48;;;;;;;20.62;71.13;100504.97;5082506;28;20028;-85
2023/07/15 08:34:08;;;;;;;2.15;1.35;;;;;;;20.64;71.56;100510.97;5080407;28;20279;-84
2023/07/15 08:36:36;;;;;;;1.20;1.10;;;;;;;20.64;70.63;100514.47;5061842;28;20039;-84
2023/07/15 08:39:02;;;;;;;1.45;0.98;;;;;;;20.66;71.31;100515.19;5080286;28;20059;-85
2023/07/15 08:41:27;;;;;;;2.35;1.25;;;;;;;20.69;71.65;100514.91;5079320;28;20327;-84
2023/07/15 08:43:53;;;;;;;2.90;1.30;;;;;;;20.72;71.83;100519.16;5083537;28;20032;-86
2023/07/15 08:46:30;;;;;;;2.00;1.17;;;;;;;20.72;72.45;100524.47;5079839;28;20169;-84
2023/07/15 08:48:57;;;;;;;2.30;1.35;;;;;;;20.73;71.86;100515.50;5081449;28;20265;-83
2023/07/15 08:51:31;;;;;;;2.25;1.30;;;;;;;20.73;70.83;100528.78;5076486;28;20367;-84
2023/07/15 08:53:59;;;;;;;2.70;1.27;;;;;;;20.73;71.12;100518.16;5078572;28;20108;-84
2023/07/15 08:56:25;;;;;;;1.67;1.00;;;;;;;20.73;71.19;100519.97;5075078;28;20024;-85
2023/07/15 08:58:51;;;;;;;1.08;0.98;;;;;;;20.73;71.11;100527.97;5078720;28;20031;-85
2023/07/15 09:01:16;;;;;;;2.67;1.15;;;;;;;20.72;70.22;100529.78;5086593;28;20062;-84
2023/07/15 09:03:42;;;;;;;1.33;1.20;;;;;;;20.73;70.44;100538.59;5080920;28;20349;-83
2023/07/15 09:06:08;;;;;;;2.72;1.17;;;;;;;20.72;70.22;100532.44;5093232;28;20044;-84
2023/07/15 09:08:34;;;;;;;1.33;1.05;;;;;;;20.73;70.93;100533.28;5079753;28;20043;-85
2023/07/15 09:10:59;;;;;;;3.15;1.10;;;;;;;20.75;71.34;100539.31;5077253;28;20035;-84
2023/07/15 09:13:27;;;;;;;1.85;0.98;;;;;;;20.76;70.92;100536.50;5072734;28;20068;-84
2023/07/15 09:15:54;;;;;;;0.93;0.82;;;;;;;20.77;70.88;100545.34;5076512;28;20132;-85
2023/07/15 09:18:19;;;;;;;1.73;1.27;;;;;;;20.78;71.32;100537.22;5076558;28;20097;-83
2023/07/15 09:20:46;;;;;;;4.53;1.33;;;;;;;20.80;71.63;100543.25;5056945;28;20028;-84
2023/07/15 09:23:12;;;;;;;2.72;1.15;;;;;;;20.81;71.66;100536.94;5074181;28;20041;-84
2023/07/15 09:25:37;;;;;;;0.85;0.85;;;;;;;20.84;72.03;100544.66;5074711;28;20036;-84
2023/07/15 09:28:07;;;;;;;1.80;1.10;;;;;;;20.86;71.59;100537.34;5074482;28;20229;-84
2023/07/15 09:30:32;;;;;;;1.13;0.85;;;;;;;20.89;71.18;100541.59;5070291;28;20377;-83
2023/07/15 09:32:58;;;;;;;1.70;1.10;;;;;;;20.92;69.80;100543.13;5076029;28;20032;-84
2023/07/15 09:35:34;;;;;;;1.77;1.00;;;;;;;20.93;69.94;100544.81;5074792;28;20063;-84
2023/07/15 09:38:00;;;;;;;1.75;1.00;;;;;;;20.94;70.44;100542.03;5070984;28;20044;-85
2023/07/15 09:40:25;;;;;;;1.77;1.08;;;;;;;20.98;71.14;100538.09;5075605;28;20028;-85
2023/07/15 09:42:52;;;;;;;1.30;0.90;;;;;;;21.05;71.00;100544.56;5075380;28;20074;-85
2023/07/15 09:45:35;;;;;;;3.03;1.20;;;;;;;21.13;71.18;100540.38;5056255;28;20333;-85
2023/07/15 09:48:07;;;;;;;2.33;1.17;;;;;;;21.16;71.20;100537.44;5074634;28;20380;-85
2023/07/15 09:50:33;;;;;;;2.22;0.90;;;;;;;21.15;68.98;100541.06;5074524;28;20016;-85
2023/07/15 09:52:59;;;;;;;2.10;1.00;;;;;;;21.13;69.01;100557.19;5074847;28;20338;-84
2023/07/15 09:55:26;;;;;;;2.97;1.15;;;;;;;21.12;69.66;100565.28;5074137;28;20292;-83
2023/07/15 09:57:58;;;;;;;1.05;0.90;;;;;;;21.09;69.26;100558.44;5076540;28;20028;-85
2023/07/15 10:00:27;;;;;;;3.35;1.08;;;;;;;21.09;69.11;100564.59;5075715;28;20067;-84
2023/07/15 10:02:56;;;;;;;1.20;1.02;;;;;;;21.11;69.65;100550.31;5074925;28;20025;-85
2023/07/15 10:05:22;;;;;;;1.58;0.90;;;;;;;21.16;70.16;100551.59;5081037;28;20032;-84
2023/07/15 10:07:50;;;;;;;3.50;1.17;;;;;;;21.21;69.45;100546.69;5081796;28;20220;-84
2023/07/15 10:10:16;;;;;;;1.65;1.20;;;;;;;21.25;69.36;100549.91;5073268;28;20040;-84
2023/07/15 10:12:42;;;;;;;4.13;1.08;;;;;;;21.27;69.49;100551.44;5062302;28;20374;-84
2023/07/15 10:15:09;;;;;;;1.80;0.95;;;;;;;21.28;69.34;100547.81;5072249;28;20116;-84
2023/07/15 10:17:36;;;;;;;1.38;1.10;;;;;;;21.28;68.58;100542.50;5073422;28;20020;-84
2023/07/15 10:20:17;;;;;;;1.48;1.30;;;;;;;21.32;69.51;100548.38;5072962;28;20340;-83
2023/07/15 10:22:43;;;;;;;3.80;1.45;;;;;;;21.37;69.20;100543.47;5073100;28;20091;-84
2023/07/15 10:25:11;;;;;;;2.55;1.40;;;;;;;21.43;69.02;100542.09;5072767;28;20069;-84
2023/07/15 10:27:37;;;;;;;1.73;1.13;;;;;;;21.51;69.14;100530.75;5072279;28;20355;-84
2023/07/15 10:30:26;;;;;;;1.42;1.20;;;;;;;21.57;69.15;100541.66;5071058;28;20087;-85
2023/07/15 10:33:00;;;;;;;1.65;1.08;;;;;;;21.61;68.84;100531.56;5072404;28;20343;-84
2023/07/15 10:35:27;;;;;;;1.27;1.00;;;;;;;21.61;69.13;100521.78;5070928;28;20035;-84
2023/07/15 10:37:56;;;;;;;2.10;1.10;;;;;;;21.63;69.29;100522.47;5072956;28;20040;-84
2023/07/15 10:40:46;;;;;;;1.08;0.98;;;;;;;21.67;69.54;100515.03;5072187;28;20032;-84
2023/07/15 10:43:12;;;;;;;3.17;1.00;;;;;;;21.70;69.68;100511.22;5069935;28;20043;-84
2023/07/15 10:45:49;;;;;;;2.83;1.20;;;;;;;21.75;69.97;100511.66;5072078;28;20032;-84
2023/07/15 10:48:15;;;;;;;1.10;1.00;;;;;;;21.78;70.10;100503.38;5071298;28;20062;-83
2023/07/15 10:50:40;;;;;;;2.25;1.33;;;;;;;21.82;70.13;100508.25;5072603;28;20337;-83
2023/07/15 10:53:26;;;;;;;1.30;1.20;;;;;;;21.90;70.72;100501.38;5070009;28;20059;-84
2023/07/15 10:56:06;;;;;;;6.05;1.30;;;;;;;21.97;70.55;100489.97;5072606;28;20055;-84
2023/07/15 10:58:34;;;;;;;2.30;1.40;;;;;;;22.05;70.32;100491.94;5070294;28;20043;-84
2023/07/15 11:01:11;;;;;;;1.48;1.30;;;;;;;22.15;70.16;100487.41;5072991;28;20227;-84
2023/07/15 11:03:38;;;;;;;1.92;1.60;;;;;;;22.21;68.70;100476.16;5067117;28;20327;-84
2023/07/15 11:06:04;;;;;;;6.43;1.88;;;;;;;22.27;69.14;100476.59;5072922;28;20035;-83
2023/07/15 11:08:31;;;;;;;1.73;1.60;;;;;;;22.32;69.23;100479.63;5072727;28;20238;-84
2023/07/15 11:11:01;;;;;;;1.92;1.48;;;;;;;22.36;69.18;100481.03;5073838;28;20297;-83
2023/07/15 11:13:27;;;;;;;3.28;1.48;;;;;;;22.39;68.70;100470.06;5090041;28;20048;-85
2023/07/15 11:15:53;;;;;;;2.10;1.58;;;;;;;22.38;68.20;100463.06;5094004;28;20480;-84
2023/07/15 11:18:22;;;;;;;2.45;1.55;;;;;;;22.36;68.51;100462.38;5093439;28;20042;-84
2023/07/15 11:20:48;;;;;;;;;;;;;;;22.34;68.26;100451.84;5094599;28;20107;-84
2023/07/15 11:23:14;;;;;;;1.23;1.13;;;;;;;22.33;68.41;100447.47;5072823;28;19934;-84
2023/07/15 11:25:40;;;;;;;4.03;1.40;;;;;;;22.36;68.62;100457.88;5075124;28;20034;-84